createdAt,value
2023-03-17T00:01:24.143Z,5.11
2023-03-17T00:04:27.768Z,5.13
2023-03-17T00:07:29.974Z,5.10
2023-03-17T00:10:32.220Z,5.05
2023-03-17T00:13:35.405Z,5.04
2023-03-17T00:16:39.013Z,5.03
2023-03-17T00:19:42.664Z,5.01
2023-03-17T00:22:44.985Z,4.95
2023-03-17T00:25:47.556Z,5.00
2023-03-17T00:28:51.097Z,4.85
2023-03-17T00:31:53.744Z,4.80
2023-03-17T00:34:58.808Z,4.78
2023-03-17T00:38:00.970Z,4.88
2023-03-17T00:41:03.206Z,4.84
2023-03-17T00:44:06.676Z,4.81
2023-03-17T00:47:09.616Z,4.91
2023-03-17T00:50:15.604Z,4.94
2023-03-17T00:53:18.985Z,4.97
2023-03-17T00:56:21.266Z,4.87
2023-03-17T00:59:26.365Z,4.92
2023-03-17T01:02:28.062Z,5.01
2023-03-17T01:05:31.234Z,5.12
2023-03-17T01:08:32.951Z,5.18
2023-03-17T01:11:35.226Z,5.12
2023-03-17T01:14:38.102Z,5.14
2023-03-17T01:17:40.137Z,5.15
2023-03-17T01:20:43.686Z,5.13
2023-03-17T01:23:46.101Z,5.19
2023-03-17T01:26:47.906Z,5.20
2023-03-17T01:29:52.421Z,5.30
2023-03-17T01:32:55.612Z,5.16
2023-03-17T01:35:58.993Z,5.20
2023-03-17T01:39:00.635Z,5.30
2023-03-17T01:42:02.476Z,5.29
2023-03-17T01:45:06.035Z,5.22
2023-03-17T01:48:09.124Z,5.16
2023-03-17T01:51:16.502Z,5.12
2023-03-17T01:54:20.911Z,5.09
2023-03-17T01:57:25.443Z,5.00
2023-03-17T02:00:27.171Z,5.15
2023-03-17T02:03:29.817Z,5.23
2023-03-17T02:06:33.434Z,5.40
2023-03-17T02:09:35.527Z,5.41
2023-03-17T02:12:37.282Z,5.45
2023-03-17T02:15:40.413Z,5.41
2023-03-17T02:18:42.374Z,5.43
2023-03-17T02:21:46.113Z,5.43
2023-03-17T02:24:50.867Z,5.49
2023-03-17T02:27:55.764Z,5.44
2023-03-17T02:30:58.041Z,5.44
2023-03-17T02:33:59.943Z,5.43
2023-03-17T02:37:03.947Z,5.41
2023-03-17T02:40:06.337Z,5.44
2023-03-17T02:43:08.022Z,5.49
2023-03-17T02:46:09.853Z,5.56
2023-03-17T02:49:12.233Z,5.55
2023-03-17T02:52:15.541Z,5.51
2023-03-17T02:55:17.457Z,5.38
2023-03-17T02:58:19.145Z,5.27
2023-03-17T03:01:21.396Z,5.28
2023-03-17T03:04:24.271Z,5.33
2023-03-17T03:07:27.444Z,5.31
2023-03-17T03:10:29.296Z,5.33
2023-03-17T03:13:31.663Z,5.35
2023-03-17T03:16:33.668Z,5.41
2023-03-17T03:19:37.571Z,5.47
2023-03-17T03:22:40.837Z,5.44
2023-03-17T03:25:42.667Z,5.39
2023-03-17T03:28:44.308Z,5.38
2023-03-17T03:31:48.183Z,5.37
2023-03-17T03:34:50.028Z,5.30
2023-03-17T03:37:53.214Z,5.21
2023-03-17T03:40:54.808Z,5.25
2023-03-17T03:43:56.988Z,5.38
2023-03-17T03:46:58.633Z,5.39
2023-03-17T03:50:00.694Z,5.37
2023-03-17T03:53:03.937Z,5.31
2023-03-17T03:56:11.294Z,5.29
2023-03-17T03:59:13.007Z,5.25
2023-03-17T04:02:14.710Z,5.26
2023-03-17T04:05:18.315Z,5.28
2023-03-17T04:08:21.636Z,5.21
2023-03-17T04:11:23.410Z,5.09
2023-03-17T04:14:25.258Z,5.01
2023-03-17T04:17:27.011Z,4.98
2023-03-17T04:20:29.158Z,4.86
2023-03-17T04:23:32.421Z,4.76
2023-03-17T04:26:34.032Z,4.70
2023-03-17T04:29:36.193Z,4.59
2023-03-17T04:32:38.291Z,4.57
2023-03-17T04:35:40.017Z,4.70
2023-03-17T04:38:43.073Z,4.64
2023-03-17T04:41:44.823Z,4.51
2023-03-17T04:44:46.487Z,4.44
2023-03-17T04:47:48.330Z,4.42
2023-03-17T04:50:49.942Z,4.42
2023-03-17T04:53:53.067Z,4.39
2023-03-17T04:56:54.744Z,4.38
2023-03-17T05:00:00.593Z,4.39
2023-03-17T05:03:02.481Z,4.30
2023-03-17T05:06:04.642Z,4.28
2023-03-17T05:09:07.916Z,4.20
2023-03-17T05:12:10.244Z,4.28
2023-03-17T05:15:12.242Z,4.30
2023-03-17T05:18:14.121Z,4.28
2023-03-17T05:21:16.434Z,4.40
2023-03-17T05:24:19.741Z,4.35
2023-03-17T05:27:21.575Z,4.33
2023-03-17T05:30:23.202Z,4.33
2023-03-17T05:33:24.884Z,4.28
2023-03-17T05:36:26.694Z,4.29
2023-03-17T05:39:29.681Z,4.32
2023-03-17T05:42:31.531Z,4.45
2023-03-17T05:45:33.482Z,4.47
2023-03-17T05:48:35.542Z,4.51
2023-03-17T05:51:37.228Z,4.59
2023-03-17T05:54:40.607Z,4.61
2023-03-17T05:57:42.400Z,4.51
2023-03-17T06:00:44.291Z,4.45
2023-03-17T06:03:45.987Z,4.38
2023-03-17T06:06:47.649Z,4.40
2023-03-17T06:09:50.695Z,4.39
2023-03-17T06:12:52.214Z,4.47
2023-03-17T06:15:54.089Z,4.59
2023-03-17T06:18:55.942Z,4.73
2023-03-17T06:21:57.534Z,4.67
2023-03-17T06:25:00.939Z,4.78
2023-03-17T06:28:04.081Z,4.85
2023-03-17T06:31:07.451Z,4.99
2023-03-17T06:34:09.263Z,5.07
2023-03-17T06:37:10.926Z,5.14
2023-03-17T06:40:16.237Z,5.17
2023-03-17T06:43:19.660Z,5.28
2023-03-17T06:46:21.627Z,5.33
2023-03-17T06:49:23.331Z,5.38
2023-03-17T06:52:25.486Z,5.38
2023-03-17T06:55:29.539Z,5.38
2023-03-17T06:58:31.852Z,5.38
2023-03-17T07:01:33.746Z,5.57
2023-03-17T07:04:38.039Z,5.69
2023-03-17T07:07:39.982Z,5.78
2023-03-17T07:10:44.019Z,5.94
2023-03-17T07:13:46.337Z,6.01
2023-03-17T07:16:49.298Z,5.99
2023-03-17T07:19:52.448Z,6.08
2023-03-17T07:22:54.107Z,6.19
2023-03-17T07:26:00.423Z,6.22
2023-03-17T07:29:02.079Z,6.21
2023-03-17T07:32:06.552Z,6.30
2023-03-17T07:35:08.300Z,6.37
2023-03-17T07:38:10.351Z,6.42
2023-03-17T07:41:13.915Z,6.53
2023-03-17T07:44:15.487Z,6.59
2023-03-17T07:47:17.214Z,6.52
2023-03-17T07:50:19.029Z,6.57
2023-03-17T07:53:21.053Z,6.66
2023-03-17T07:56:23.900Z,6.67
2023-03-17T07:59:25.556Z,6.73
2023-03-17T08:02:27.221Z,6.82
2023-03-17T08:05:28.697Z,6.84
2023-03-17T08:08:30.590Z,6.94
2023-03-17T08:11:33.608Z,7.07
2023-03-17T08:14:35.138Z,7.18
2023-03-17T08:17:37.446Z,7.32
2023-03-17T08:20:39.155Z,7.48
2023-03-17T08:23:40.833Z,7.54
2023-03-17T08:26:43.808Z,7.74
2023-03-17T08:29:45.357Z,7.87
2023-03-17T08:32:47.804Z,7.96
2023-03-17T08:35:49.970Z,8.10
2023-03-17T08:38:52.042Z,8.23
2023-03-17T08:41:55.660Z,8.26
2023-03-17T08:44:57.419Z,8.27
2023-03-17T08:47:59.214Z,8.31
2023-03-17T08:51:00.899Z,8.55
2023-03-17T08:54:03.035Z,8.64
2023-03-17T09:00:27.036Z,8.79
2023-03-17T09:03:29.295Z,8.83
2023-03-17T09:06:31.595Z,8.97
2023-03-17T09:09:34.536Z,9.05
2023-03-17T09:12:36.273Z,9.08
2023-03-17T09:15:39.796Z,9.11
2023-03-17T09:18:41.998Z,9.13
2023-03-17T09:21:43.762Z,9.32
2023-03-17T09:24:45.998Z,9.33
2023-03-17T09:27:48.008Z,9.48
2023-03-17T09:30:51.833Z,9.52
2023-03-17T09:33:53.586Z,9.46
2023-03-17T09:36:55.812Z,9.48
2023-03-17T09:39:58.159Z,9.55
2023-03-17T09:43:06.932Z,9.63
2023-03-17T09:46:19.063Z,9.73
2023-03-17T09:49:22.803Z,9.74
2023-03-17T09:52:27.243Z,9.82
2023-03-17T09:55:30.109Z,9.92
2023-03-17T09:58:33.410Z,10.08
2023-03-17T10:01:41.096Z,10.10
2023-03-17T10:04:44.979Z,10.11
2023-03-17T10:07:51.005Z,10.10
2023-03-17T10:10:57.656Z,10.06
2023-03-17T10:17:19.711Z,10.24
2023-03-17T10:20:24.536Z,10.34
2023-03-17T10:23:27.914Z,10.57
2023-03-17T10:26:32.503Z,10.77
2023-03-17T10:29:37.159Z,10.88
2023-03-17T10:32:41.213Z,11.10
2023-03-17T10:35:45.266Z,11.32
2023-03-17T10:38:54.469Z,11.42
2023-03-17T10:41:57.623Z,11.73
2023-03-17T10:45:01.566Z,11.78
2023-03-17T10:48:07.745Z,12.01
2023-03-17T10:51:11.446Z,12.08
2023-03-17T10:54:17.807Z,12.24
2023-03-17T10:57:19.882Z,12.33
2023-03-17T11:00:23.404Z,12.60
2023-03-17T11:03:28.928Z,12.59
2023-03-17T11:06:37.249Z,12.74
2023-03-17T11:09:39.898Z,12.82
2023-03-17T11:12:42.420Z,12.91
2023-03-17T11:15:48.511Z,12.95
2023-03-17T11:18:54.665Z,12.91
2023-03-17T11:22:01.389Z,12.93
2023-03-17T11:25:06.433Z,12.95
2023-03-17T11:28:16.974Z,13.00
2023-03-17T11:31:25.446Z,13.13
2023-03-17T11:34:33.884Z,13.07
2023-03-17T11:37:45.277Z,13.18
2023-03-17T11:41:02.671Z,13.32
2023-03-17T11:44:22.599Z,13.43
2023-03-17T11:47:37.389Z,13.51
2023-03-17T11:50:45.339Z,13.72
2023-03-17T11:53:55.319Z,13.68
2023-03-17T11:57:00.013Z,13.83
2023-03-17T12:00:04.000Z,13.88
2023-03-17T12:03:17.610Z,13.89
2023-03-17T12:06:26.020Z,13.78
2023-03-17T12:09:34.310Z,13.70
2023-03-17T12:12:40.956Z,13.71
2023-03-17T12:15:45.808Z,13.65
2023-03-17T12:19:03.372Z,13.71
2023-03-17T12:22:09.384Z,13.82
2023-03-17T12:25:13.328Z,13.92
2023-03-17T12:28:19.239Z,14.10
2023-03-17T12:31:22.808Z,14.09
2023-03-17T12:34:27.100Z,14.05
2023-03-17T12:37:30.258Z,14.01
2023-03-17T12:40:34.772Z,13.86
2023-03-17T12:43:38.643Z,13.81
2023-03-17T12:46:48.465Z,13.83
2023-03-17T12:50:02.671Z,13.82
2023-03-17T12:53:19.954Z,13.86
2023-03-17T12:56:24.373Z,13.81
2023-03-17T12:59:26.506Z,13.81
2023-03-17T13:02:32.500Z,13.88
2023-03-17T13:05:37.328Z,13.87
2023-03-17T13:08:42.260Z,13.82
2023-03-17T13:11:47.301Z,13.80
2023-03-17T13:14:51.656Z,13.74
2023-03-17T13:18:16.401Z,13.68
2023-03-17T13:21:20.537Z,13.62
2023-03-17T13:24:41.907Z,13.57
2023-03-17T13:27:45.662Z,13.60
2023-03-17T13:30:59.823Z,13.58
2023-03-17T13:34:15.249Z,13.55
2023-03-17T13:37:22.850Z,13.47
2023-03-17T13:40:31.984Z,13.44
2023-03-17T13:43:47.489Z,13.39
2023-03-17T13:46:49.722Z,13.39
2023-03-17T13:49:53.088Z,13.37
2023-03-17T13:52:56.258Z,13.36
2023-03-17T13:56:09.128Z,13.36
2023-03-17T13:59:13.649Z,13.30
2023-03-17T14:02:16.988Z,13.28
2023-03-17T14:05:21.214Z,13.24
2023-03-17T14:08:26.732Z,13.24
2023-03-17T14:11:32.964Z,13.24
2023-03-17T14:14:38.366Z,13.21
2023-03-17T14:17:42.866Z,13.17
2023-03-17T14:20:52.264Z,13.13
2023-03-17T14:23:55.105Z,13.06
2023-03-17T14:26:58.343Z,13.11
2023-03-17T14:30:05.622Z,13.15
2023-03-17T14:33:13.991Z,13.17
2023-03-17T14:36:16.059Z,13.15
2023-03-17T14:39:23.113Z,13.09
2023-03-17T14:42:30.162Z,13.09
2023-03-17T14:45:41.814Z,13.06
2023-03-17T14:48:47.061Z,13.02
2023-03-17T14:51:49.846Z,12.99
2023-03-17T14:54:53.281Z,12.98
2023-03-17T14:57:56.844Z,12.98
2023-03-17T15:01:02.852Z,12.96
2023-03-17T15:04:07.341Z,12.97
2023-03-17T15:07:23.760Z,12.92
2023-03-17T15:10:26.590Z,12.88
2023-03-17T15:13:33.765Z,12.88
2023-03-17T15:16:36.252Z,12.87
2023-03-17T15:19:40.347Z,12.83
2023-03-17T15:22:43.501Z,12.80
2023-03-17T15:25:46.279Z,12.75
2023-03-17T15:28:49.414Z,12.76
2023-03-17T15:31:51.210Z,12.83
2023-03-17T15:34:53.885Z,12.81
2023-03-17T15:37:56.011Z,12.78
2023-03-17T15:40:57.865Z,12.71
2023-03-17T15:44:03.482Z,12.67
2023-03-17T15:47:05.785Z,12.62
2023-03-17T15:50:13.640Z,12.61
2023-03-17T15:53:15.209Z,12.66
2023-03-17T15:56:19.153Z,12.56
2023-03-17T15:59:22.796Z,12.51
2023-03-17T16:02:27.774Z,12.54
2023-03-17T16:05:31.146Z,12.52
2023-03-17T16:08:33.890Z,12.49
2023-03-17T16:11:35.525Z,12.45
2023-03-17T16:14:39.087Z,12.35
2023-03-17T16:17:41.638Z,12.35
2023-03-17T16:20:44.299Z,12.35
2023-03-17T16:23:46.806Z,12.30
2023-03-17T16:26:49.212Z,12.35
2023-03-17T16:29:53.265Z,12.27
2023-03-17T16:32:57.730Z,12.24
2023-03-17T16:36:00.164Z,12.22
2023-03-17T16:39:02.171Z,12.18
2023-03-17T16:42:04.220Z,12.12
2023-03-17T16:45:13.852Z,12.09
2023-03-17T16:48:15.741Z,12.08
2023-03-17T16:51:17.949Z,12.02
2023-03-17T16:54:19.868Z,12.03
2023-03-17T16:57:21.514Z,12.01
2023-03-17T17:00:26.187Z,11.95
2023-03-17T17:03:27.850Z,11.97
2023-03-17T17:06:29.631Z,11.92
2023-03-17T17:09:31.445Z,11.95
2023-03-17T17:12:33.213Z,11.90
2023-03-17T17:15:37.078Z,11.78
2023-03-17T17:18:38.690Z,11.71
2023-03-17T17:21:40.609Z,11.74
2023-03-17T17:24:42.337Z,11.76
2023-03-17T17:27:45.399Z,11.74
2023-03-17T17:30:49.340Z,11.70
2023-03-17T17:33:51.000Z,11.71
2023-03-17T17:36:53.098Z,11.69
2023-03-17T17:39:54.880Z,11.64
2023-03-17T17:42:57.709Z,11.56
2023-03-17T17:46:01.066Z,11.46
2023-03-17T17:49:02.640Z,11.48
2023-03-17T17:52:04.673Z,11.43
2023-03-17T17:55:06.641Z,11.37
2023-03-17T17:58:08.511Z,11.35
2023-03-17T18:01:13.520Z,11.35
2023-03-17T18:04:15.435Z,11.23
2023-03-17T18:07:17.230Z,11.22
2023-03-17T18:10:22.320Z,11.29
2023-03-17T18:13:23.994Z,11.25
2023-03-17T18:16:27.148Z,11.21
2023-03-17T18:19:28.804Z,11.18
2023-03-17T18:22:30.585Z,11.17
2023-03-17T18:25:32.256Z,11.19
2023-03-17T18:28:34.279Z,11.13
2023-03-17T18:31:40.539Z,11.07
2023-03-17T18:34:43.995Z,11.07
2023-03-17T18:37:45.831Z,11.08
2023-03-17T18:40:47.456Z,11.14
2023-03-17T18:43:49.230Z,11.15
2023-03-17T18:46:52.392Z,11.15
2023-03-17T18:49:54.047Z,11.17
2023-03-17T18:52:56.207Z,11.13
2023-03-17T18:55:59.354Z,10.99
2023-03-17T18:59:01.282Z,10.90
2023-03-17T19:02:04.748Z,10.90
2023-03-17T19:05:07.560Z,10.85
2023-03-17T19:08:09.333Z,10.74
2023-03-17T19:11:13.610Z,10.62
2023-03-17T19:14:15.266Z,10.52
2023-03-17T19:17:18.321Z,10.42
2023-03-17T19:20:20.316Z,10.37
2023-03-17T19:23:22.134Z,10.37
2023-03-17T19:26:23.823Z,10.47
2023-03-17T19:29:27.697Z,10.60
2023-03-17T19:32:30.955Z,10.57
2023-03-17T19:35:32.571Z,10.68
2023-03-17T19:38:35.357Z,10.74
2023-03-17T19:41:37.406Z,10.72
2023-03-17T19:44:38.990Z,10.81
2023-03-17T19:47:42.642Z,10.81
2023-03-17T19:50:44.734Z,10.71
2023-03-17T19:53:46.337Z,10.68
2023-03-17T19:56:47.917Z,10.71
2023-03-17T19:59:51.304Z,10.66
2023-03-17T20:02:54.259Z,10.68
2023-03-17T20:05:55.879Z,10.68
2023-03-17T20:08:57.534Z,10.67
2023-03-17T20:11:59.336Z,10.67
2023-03-17T20:15:01.566Z,10.69
2023-03-17T20:18:04.529Z,10.67
2023-03-17T20:21:11.147Z,10.70
2023-03-17T20:24:14.795Z,10.69
2023-03-17T20:27:17.508Z,10.74
2023-03-17T20:30:19.276Z,10.76
2023-03-17T20:33:22.462Z,10.77
2023-03-17T20:36:24.576Z,10.72
2023-03-17T20:39:26.590Z,10.71
2023-03-17T20:42:28.345Z,10.82
2023-03-17T20:45:30.221Z,10.89
2023-03-17T20:48:34.669Z,10.80
2023-03-17T20:51:36.871Z,10.68
2023-03-17T20:54:39.108Z,10.71
2023-03-17T20:57:41.634Z,10.70
2023-03-17T21:00:43.343Z,10.83
2023-03-17T21:03:47.331Z,10.79
2023-03-17T21:06:49.824Z,10.67
2023-03-17T21:09:52.169Z,10.76
2023-03-17T21:12:54.248Z,10.77
2023-03-17T21:15:56.806Z,10.81
2023-03-17T21:19:00.190Z,10.84
2023-03-17T21:25:10.760Z,10.85
2023-03-17T21:28:13.797Z,10.81
2023-03-17T21:31:17.316Z,10.71
2023-03-17T21:34:20.677Z,10.65
2023-03-17T21:37:22.533Z,10.66
2023-03-17T21:40:26.254Z,10.69
2023-03-17T21:43:28.986Z,10.70
2023-03-17T21:46:31.742Z,10.67
2023-03-17T21:49:35.088Z,10.66
2023-03-17T21:52:39.593Z,10.59
2023-03-17T21:55:41.539Z,10.56
2023-03-17T21:58:43.234Z,10.58
2023-03-17T22:01:44.964Z,10.58
2023-03-17T22:04:48.817Z,10.55
2023-03-17T22:07:50.621Z,10.52
2023-03-17T22:10:53.228Z,10.48
2023-03-17T22:13:55.886Z,10.47
2023-03-17T22:16:57.648Z,10.49
2023-03-17T22:20:01.116Z,10.44
2023-03-17T22:23:03.282Z,10.42
2023-03-17T22:26:05.055Z,10.48
2023-03-17T22:29:07.606Z,10.49
2023-03-17T22:32:09.986Z,10.45
2023-03-17T22:35:13.572Z,10.47
2023-03-17T22:38:15.246Z,10.45
2023-03-17T22:41:18.354Z,10.45
2023-03-17T22:44:19.970Z,10.45
2023-03-17T22:47:21.592Z,10.42
2023-03-17T22:50:24.601Z,10.42
2023-03-17T22:53:26.582Z,10.41
2023-03-17T22:56:28.965Z,10.32
2023-03-17T22:59:30.846Z,10.21
2023-03-17T23:02:32.676Z,10.15
2023-03-17T23:05:35.687Z,10.14
2023-03-17T23:08:38.502Z,10.21
2023-03-17T23:11:40.931Z,10.32
2023-03-17T23:14:43.692Z,10.39
2023-03-17T23:17:46.356Z,10.43
2023-03-17T23:20:51.569Z,10.39
2023-03-17T23:23:53.528Z,10.37
2023-03-17T23:26:55.893Z,10.39
2023-03-17T23:29:59.155Z,10.41
2023-03-17T23:33:01.301Z,10.43
2023-03-17T23:36:03.567Z,10.45
2023-03-17T23:39:07.462Z,10.48
2023-03-17T23:42:10.810Z,10.55
2023-03-17T23:45:12.419Z,10.58
2023-03-17T23:48:14.310Z,10.64
2023-03-17T23:51:17.129Z,10.63
2023-03-17T23:54:20.414Z,10.66
2023-03-17T23:57:26.674Z,10.65
